sensor_id;sensor_type;location;lat;lon;timestamp;temperature;humidity
9668;DHT22;4872;48.316;10.650;2022-11-23T04:50:52;5.60;99.90
9668;DHT22;4872;48.316;10.650;2022-11-23T04:53:19;5.60;99.90
9668;DHT22;4872;48.316;10.650;2022-11-23T04:55:46;5.60;99.90
9668;DHT22;4872;48.316;10.650;2022-11-23T04:58:13;5.70;99.90
9668;DHT22;4872;48.316;10.650;2022-11-23T05:00:40;5.60;99.90
9668;DHT22;4872;48.316;10.650;2022-11-23T05:03:06;5.70;99.90
9668;DHT22;4872;48.316;10.650;2022-11-23T05:05:36;5.60;99.90
9668;DHT22;4872;48.316;10.650;2022-11-23T05:08:05;5.60;99.90
9668;DHT22;4872;48.316;10.650;2022-11-23T05:10:32;5.60;99.90
9668;DHT22;4872;48.316;10.650;2022-11-23T05:12:59;5.60;99.90
9668;DHT22;4872;48.316;10.650;2022-11-23T05:15:26;5.60;99.90
9668;DHT22;4872;48.316;10.650;2022-11-23T05:17:53;5.60;99.90
9668;DHT22;4872;48.316;10.650;2022-11-23T05:20:19;5.60;99.90
9668;DHT22;4872;48.316;10.650;2022-11-23T05:22:46;5.60;99.90
9668;DHT22;4872;48.316;10.650;2022-11-23T05:25:15;5.60;99.90
9668;DHT22;4872;48.316;10.650;2022-11-23T05:27:42;5.60;99.90
9668;DHT22;4872;48.316;10.650;2022-11-23T05:30:09;5.60;99.90
9668;DHT22;4872;48.316;10.650;2022-11-23T05:32:36;5.60;99.90
9668;DHT22;4872;48.316;10.650;2022-11-23T05:35:03;5.60;99.90
9668;DHT22;4872;48.316;10.650;2022-11-23T05:37:30;5.60;99.90
9668;DHT22;4872;48.316;10.650;2022-11-23T05:39:59;5.60;99.90
9668;DHT22;4872;48.316;10.650;2022-11-23T05:42:27;5.60;99.90
9668;DHT22;4872;48.316;10.650;2022-11-23T05:44:54;5.60;99.90
9668;DHT22;4872;48.316;10.650;2022-11-23T05:47:20;5.60;99.90
9668;DHT22;4872;48.316;10.650;2022-11-23T05:49:47;5.60;99.90
9668;DHT22;4872;48.316;10.650;2022-11-23T05:52:15;5.60;99.90
9668;DHT22;4872;48.316;10.650;2022-11-23T05:54:42;5.60;99.90
9668;DHT22;4872;48.316;10.650;2022-11-23T05:57:09;5.50;99.90
9668;DHT22;4872;48.316;10.650;2022-11-23T05:59:37;5.60;99.90
9668;DHT22;4872;48.316;10.650;2022-11-23T06:02:04;5.70;99.90
9668;DHT22;4872;48.316;10.650;2022-11-23T06:04:31;5.70;99.90
9668;DHT22;4872;48.316;10.650;2022-11-23T06:06:58;5.80;99.90
9668;DHT22;4872;48.316;10.650;2022-11-23T06:09:25;5.60;99.90
9668;DHT22;4872;48.316;10.650;2022-11-23T06:11:52;5.60;99.90
9668;DHT22;4872;48.316;10.650;2022-11-23T06:14:19;5.60;99.90
9668;DHT22;4872;48.316;10.650;2022-11-23T06:16:47;5.60;99.90
9668;DHT22;4872;48.316;10.650;2022-11-23T06:19:14;5.60;99.90
9668;DHT22;4872;48.316;10.650;2022-11-23T06:21:41;5.60;99.90
9668;DHT22;4872;48.316;10.650;2022-11-23T06:24:08;5.60;99.90
9668;DHT22;4872;48.316;10.650;2022-11-23T06:26:34;5.70;99.90
9668;DHT22;4872;48.316;10.650;2022-11-23T06:29:01;5.70;99.90
9668;DHT22;4872;48.316;10.650;2022-11-23T06:31:28;5.70;99.90
9668;DHT22;4872;48.316;10.650;2022-11-23T06:33:56;5.60;99.90
9668;DHT22;4872;48.316;10.650;2022-11-23T06:36:23;5.60;99.90
9668;DHT22;4872;48.316;10.650;2022-11-23T06:38:50;5.60;99.90
9668;DHT22;4872;48.316;10.650;2022-11-23T06:41:17;5.60;99.90
9668;DHT22;4872;48.316;10.650;2022-11-23T06:43:45;5.50;99.90
9668;DHT22;4872;48.316;10.650;2022-11-23T06:46:12;5.50;99.90
9668;DHT22;4872;48.316;10.650;2022-11-23T06:48:42;5.50;99.90
9668;DHT22;4872;48.316;10.650;2022-11-23T06:51:10;5.50;99.90
9668;DHT22;4872;48.316;10.650;2022-11-23T06:53:37;5.50;99.90
9668;DHT22;4872;48.316;10.650;2022-11-23T06:56:04;5.50;99.90
9668;DHT22;4872;48.316;10.650;2022-11-23T06:58:31;5.50;99.90
9668;DHT22;4872;48.316;10.650;2022-11-23T07:00:59;5.50;99.90
9668;DHT22;4872;48.316;10.650;2022-11-23T07:03:26;5.50;99.90
9668;DHT22;4872;48.316;10.650;2022-11-23T07:05:53;5.50;99.90
9668;DHT22;4872;48.316;10.650;2022-11-23T07:08:21;5.50;99.90
9668;DHT22;4872;48.316;10.650;2022-11-23T07:10:48;5.50;99.90
9668;DHT22;4872;48.316;10.650;2022-11-23T07:13:15;5.50;99.90
9668;DHT22;4872;48.316;10.650;2022-11-23T07:15:42;5.50;99.90
9668;DHT22;4872;48.316;10.650;2022-11-23T07:18:10;5.60;99.90
9668;DHT22;4872;48.316;10.650;2022-11-23T07:20:37;5.60;99.90
9668;DHT22;4872;48.316;10.650;2022-11-23T07:23:06;5.60;99.90
9668;DHT22;4872;48.316;10.650;2022-11-23T07:25:36;5.60;99.90
9668;DHT22;4872;48.316;10.650;2022-11-23T07:28:05;5.60;99.90
9668;DHT22;4872;48.316;10.650;2022-11-23T07:30:34;5.70;99.90
9668;DHT22;4872;48.316;10.650;2022-11-23T07:33:02;5.70;99.90
9668;DHT22;4872;48.316;10.650;2022-11-23T07:35:29;5.70;99.90
9668;DHT22;4872;48.316;10.650;2022-11-23T07:37:57;5.80;99.90
9668;DHT22;4872;48.316;10.650;2022-11-23T07:40:24;5.90;99.90
9668;DHT22;4872;48.316;10.650;2022-11-23T07:42:58;5.80;99.90
9668;DHT22;4872;48.316;10.650;2022-11-23T07:45:25;5.80;99.90
9668;DHT22;4872;48.316;10.650;2022-11-23T07:47:57;5.90;99.90
9668;DHT22;4872;48.316;10.650;2022-11-23T07:50:24;5.90;99.90
9668;DHT22;4872;48.316;10.650;2022-11-23T07:52:51;6.00;99.90
9668;DHT22;4872;48.316;10.650;2022-11-23T07:55:18;6.00;99.90
9668;DHT22;4872;48.316;10.650;2022-11-23T07:57:44;6.10;99.90
9668;DHT22;4872;48.316;10.650;2022-11-23T08:00:14;6.00;99.90
9668;DHT22;4872;48.316;10.650;2022-11-23T08:02:40;6.00;99.90
9668;DHT22;4872;48.316;10.650;2022-11-23T08:05:07;6.00;99.90
9668;DHT22;4872;48.316;10.650;2022-11-23T08:07:34;6.10;99.90
9668;DHT22;4872;48.316;10.650;2022-11-23T08:10:01;6.10;99.90
9668;DHT22;4872;48.316;10.650;2022-11-23T08:12:28;6.20;99.90
9668;DHT22;4872;48.316;10.650;2022-11-23T08:14:55;6.20;99.90
9668;DHT22;4872;48.316;10.650;2022-11-23T08:17:23;6.30;99.90
9668;DHT22;4872;48.316;10.650;2022-11-23T08:19:50;6.30;99.90
9668;DHT22;4872;48.316;10.650;2022-11-23T08:22:17;6.40;99.90
9668;DHT22;4872;48.316;10.650;2022-11-23T08:24:44;6.50;99.90
9668;DHT22;4872;48.316;10.650;2022-11-23T08:27:12;6.50;99.90
9668;DHT22;4872;48.316;10.650;2022-11-23T08:29:39;6.60;99.90
9668;DHT22;4872;48.316;10.650;2022-11-23T08:32:06;6.80;99.90
9668;DHT22;4872;48.316;10.650;2022-11-23T08:34:34;6.90;99.90
9668;DHT22;4872;48.316;10.650;2022-11-23T08:37:01;7.10;99.90
9668;DHT22;4872;48.316;10.650;2022-11-23T08:39:27;7.20;99.90
9668;DHT22;4872;48.316;10.650;2022-11-23T08:41:54;7.40;99.90
9668;DHT22;4872;48.316;10.650;2022-11-23T08:44:21;7.50;99.90
9668;DHT22;4872;48.316;10.650;2022-11-23T08:46:48;7.60;99.90
9668;DHT22;4872;48.316;10.650;2022-11-23T08:49:15;7.70;99.90
9668;DHT22;4872;48.316;10.650;2022-11-23T08:51:45;7.80;99.90
9668;DHT22;4872;48.316;10.650;2022-11-23T08:54:13;7.80;99.90
9668;DHT22;4872;48.316;10.650;2022-11-23T08:56:42;7.90;99.90
9668;DHT22;4872;48.316;10.650;2022-11-23T08:59:09;7.90;99.90
9668;DHT22;4872;48.316;10.650;2022-11-23T09:01:41;7.90;99.90
9668;DHT22;4872;48.316;10.650;2022-11-23T09:04:22;8.00;99.90
9668;DHT22;4872;48.316;10.650;2022-11-23T09:06:50;8.00;99.90
9668;DHT22;4872;48.316;10.650;2022-11-23T09:09:17;8.10;99.90
9668;DHT22;4872;48.316;10.650;2022-11-23T09:11:43;8.10;99.90
9668;DHT22;4872;48.316;10.650;2022-11-23T09:14:10;8.10;99.90
9668;DHT22;4872;48.316;10.650;2022-11-23T09:16:37;8.10;99.90
9668;DHT22;4872;48.316;10.650;2022-11-23T09:19:04;8.10;99.90
9668;DHT22;4872;48.316;10.650;2022-11-23T09:21:31;8.10;99.90
9668;DHT22;4872;48.316;10.650;2022-11-23T09:24:01;8.10;99.90
9668;DHT22;4872;48.316;10.650;2022-11-23T09:26:28;8.10;99.90
9668;DHT22;4872;48.316;10.650;2022-11-23T09:28:56;8.20;99.90
9668;DHT22;4872;48.316;10.650;2022-11-23T09:31:22;8.20;99.90
9668;DHT22;4872;48.316;10.650;2022-11-23T09:33:51;8.20;99.90
9668;DHT22;4872;48.316;10.650;2022-11-23T09:36:18;8.30;99.90
9668;DHT22;4872;48.316;10.650;2022-11-23T09:38:47;8.30;99.90
9668;DHT22;4872;48.316;10.650;2022-11-23T09:41:36;8.30;99.90
9668;DHT22;4872;48.316;10.650;2022-11-23T09:44:12;8.30;99.90
9668;DHT22;4872;48.316;10.650;2022-11-23T09:46:50;8.40;99.90
9668;DHT22;4872;48.316;10.650;2022-11-23T09:49:21;8.40;99.90
9668;DHT22;4872;48.316;10.650;2022-11-23T09:51:56;8.40;99.90
9668;DHT22;4872;48.316;10.650;2022-11-23T09:54:25;8.40;99.90
9668;DHT22;4872;48.316;10.650;2022-11-23T09:56:56;8.40;99.90
9668;DHT22;4872;48.316;10.650;2022-11-23T09:59:35;8.40;99.90
9668;DHT22;4872;48.316;10.650;2022-11-23T10:02:05;8.40;99.90
9668;DHT22;4872;48.316;10.650;2022-11-23T10:04:34;8.50;99.90
9668;DHT22;4872;48.316;10.650;2022-11-23T10:07:10;8.50;99.90
9668;DHT22;4872;48.316;10.650;2022-11-23T10:09:45;8.50;99.90
9668;DHT22;4872;48.316;10.650;2022-11-23T10:12:27;8.60;99.90
9668;DHT22;4872;48.316;10.650;2022-11-23T10:15:09;8.60;99.90
9668;DHT22;4872;48.316;10.650;2022-11-23T10:18:01;8.70;99.70
9668;DHT22;4872;48.316;10.650;2022-11-23T10:20:44;8.70;99.60
9668;DHT22;4872;48.316;10.650;2022-11-23T10:23:20;8.80;99.50
9668;DHT22;4872;48.316;10.650;2022-11-23T10:25:49;8.90;99.20
9668;DHT22;4872;48.316;10.650;2022-11-23T10:28:20;8.90;98.90
9668;DHT22;4872;48.316;10.650;2022-11-23T10:30:52;8.90;98.60
9668;DHT22;4872;48.316;10.650;2022-11-23T10:33:28;9.00;98.70
9668;DHT22;4872;48.316;10.650;2022-11-23T10:35:56;9.00;99.10
9668;DHT22;4872;48.316;10.650;2022-11-23T10:38:25;8.90;99.20
9668;DHT22;4872;48.316;10.650;2022-11-23T10:41:00;8.90;98.80
9668;DHT22;4872;48.316;10.650;2022-11-23T10:43:31;8.80;98.70
9668;DHT22;4872;48.316;10.650;2022-11-23T10:46:25;8.80;98.60
9668;DHT22;4872;48.316;10.650;2022-11-23T10:48:52;8.80;98.60
9668;DHT22;4872;48.316;10.650;2022-11-23T10:51:25;8.80;98.60
9668;DHT22;4872;48.316;10.650;2022-11-23T10:53:55;8.90;98.60
9668;DHT22;4872;48.316;10.650;2022-11-23T10:56:23;8.90;98.60
9668;DHT22;4872;48.316;10.650;2022-11-23T10:58:51;9.00;98.80
9668;DHT22;4872;48.316;10.650;2022-11-23T11:01:21;9.00;98.70
9668;DHT22;4872;48.316;10.650;2022-11-23T11:03:51;9.20;98.70
9668;DHT22;4872;48.316;10.650;2022-11-23T11:06:23;9.30;98.50
9668;DHT22;4872;48.316;10.650;2022-11-23T11:08:53;9.50;98.30
9668;DHT22;4872;48.316;10.650;2022-11-23T11:11:24;9.70;98.50
9668;DHT22;4872;48.316;10.650;2022-11-23T11:14:01;10.00;97.90
9668;DHT22;4872;48.316;10.650;2022-11-23T11:16:29;10.30;97.00
9668;DHT22;4872;48.316;10.650;2022-11-23T11:18:57;10.60;96.30
9668;DHT22;4872;48.316;10.650;2022-11-23T11:21:30;10.70;95.20
9668;DHT22;4872;48.316;10.650;2022-11-23T11:24:00;10.90;92.80
9668;DHT22;4872;48.316;10.650;2022-11-23T11:26:29;11.10;90.50
9668;DHT22;4872;48.316;10.650;2022-11-23T11:29:00;11.10;89.40
9668;DHT22;4872;48.316;10.650;2022-11-23T11:31:40;11.20;86.50
9668;DHT22;4872;48.316;10.650;2022-11-23T11:34:15;11.30;88.30
9668;DHT22;4872;48.316;10.650;2022-11-23T11:36:47;11.40;87.90
9668;DHT22;4872;48.316;10.650;2022-11-23T11:39:21;11.50;86.90
9668;DHT22;4872;48.316;10.650;2022-11-23T11:41:49;11.90;85.10
9668;DHT22;4872;48.316;10.650;2022-11-23T11:44:20;12.10;86.20
9668;DHT22;4872;48.316;10.650;2022-11-23T11:46:51;12.30;86.30
9668;DHT22;4872;48.316;10.650;2022-11-23T11:49:22;12.30;83.90
9668;DHT22;4872;48.316;10.650;2022-11-23T11:51:52;12.20;82.00
9668;DHT22;4872;48.316;10.650;2022-11-23T11:54:25;12.20;82.40
9668;DHT22;4872;48.316;10.650;2022-11-23T11:56:56;12.00;80.30
9668;DHT22;4872;48.316;10.650;2022-11-23T11:59:31;11.70;81.00
9668;DHT22;4872;48.316;10.650;2022-11-23T12:02:13;11.60;80.50
9668;DHT22;4872;48.316;10.650;2022-11-23T12:04:44;11.40;80.90
9668;DHT22;4872;48.316;10.650;2022-11-23T12:07:19;11.10;81.60
9668;DHT22;4872;48.316;10.650;2022-11-23T12:09:51;11.00;82.10
9668;DHT22;4872;48.316;10.650;2022-11-23T12:12:20;11.10;82.80
9668;DHT22;4872;48.316;10.650;2022-11-23T12:14:49;11.40;82.00
9668;DHT22;4872;48.316;10.650;2022-11-23T12:17:36;12.00;85.10
9668;DHT22;4872;48.316;10.650;2022-11-23T12:20:15;12.90;84.80
9668;DHT22;4872;48.316;10.650;2022-11-23T12:22:54;13.70;82.30
9668;DHT22;4872;48.316;10.650;2022-11-23T12:25:29;14.50;81.40
9668;DHT22;4872;48.316;10.650;2022-11-23T12:28:13;14.70;76.00
9668;DHT22;4872;48.316;10.650;2022-11-23T12:30:50;15.40;75.50
9668;DHT22;4872;48.316;10.650;2022-11-23T12:33:31;15.80;72.30
9668;DHT22;4872;48.316;10.650;2022-11-23T12:36:12;15.80;67.20
9668;DHT22;4872;48.316;10.650;2022-11-23T12:38:50;15.80;67.40
9668;DHT22;4872;48.316;10.650;2022-11-23T12:41:24;15.90;67.80
9668;DHT22;4872;48.316;10.650;2022-11-23T12:44:20;16.10;69.10
9668;DHT22;4872;48.316;10.650;2022-11-23T12:46:56;16.30;66.10
9668;DHT22;4872;48.316;10.650;2022-11-23T12:49:32;16.50;62.90
9668;DHT22;4872;48.316;10.650;2022-11-23T12:52:14;16.70;62.20
9668;DHT22;4872;48.316;10.650;2022-11-23T12:54:53;16.80;59.80
9668;DHT22;4872;48.316;10.650;2022-11-23T12:57:25;16.80;59.00
9668;DHT22;4872;48.316;10.650;2022-11-23T12:59:55;16.90;59.80
9668;DHT22;4872;48.316;10.650;2022-11-23T13:03:17;17.10;59.50
9668;DHT22;4872;48.316;10.650;2022-11-23T13:06:26;17.10;59.90
9668;DHT22;4872;48.316;10.650;2022-11-23T13:09:15;17.20;58.50
9668;DHT22;4872;48.316;10.650;2022-11-23T13:12:02;17.40;57.80
9668;DHT22;4872;48.316;10.650;2022-11-23T13:14:39;17.20;57.30
9668;DHT22;4872;48.316;10.650;2022-11-23T13:17:21;17.40;57.40
9668;DHT22;4872;48.316;10.650;2022-11-23T13:22:52;17.40;56.30
9668;DHT22;4872;48.316;10.650;2022-11-23T13:25:23;17.30;56.30
9668;DHT22;4872;48.316;10.650;2022-11-23T13:27:59;17.00;56.30
9668;DHT22;4872;48.316;10.650;2022-11-23T13:30:34;17.10;56.00
9668;DHT22;4872;48.316;10.650;2022-11-23T13:33:27;16.80;55.50
9668;DHT22;4872;48.316;10.650;2022-11-23T13:35:59;16.80;55.10
9668;DHT22;4872;48.316;10.650;2022-11-23T13:38:40;16.70;54.20
9668;DHT22;4872;48.316;10.650;2022-11-23T13:44:24;16.70;53.30
9668;DHT22;4872;48.316;10.650;2022-11-23T13:47:06;16.80;53.50
9668;DHT22;4872;48.316;10.650;2022-11-23T13:49:40;16.70;53.70
9668;DHT22;4872;48.316;10.650;2022-11-23T13:52:28;16.60;53.60
9668;DHT22;4872;48.316;10.650;2022-11-23T13:55:02;16.80;54.10
9668;DHT22;4872;48.316;10.650;2022-11-23T13:57:31;16.70;52.90
9668;DHT22;4872;48.316;10.650;2022-11-23T14:06:15;16.90;53.00
9668;DHT22;4872;48.316;10.650;2022-11-23T14:08:47;16.80;53.50
9668;DHT22;4872;48.316;10.650;2022-11-23T14:11:19;16.70;53.00
9668;DHT22;4872;48.316;10.650;2022-11-23T14:13:52;16.80;53.20
9668;DHT22;4872;48.316;10.650;2022-11-23T14:16:35;16.90;53.20
9668;DHT22;4872;48.316;10.650;2022-11-23T14:19:16;16.80;53.20
9668;DHT22;4872;48.316;10.650;2022-11-23T14:21:54;16.80;52.90
9668;DHT22;4872;48.316;10.650;2022-11-23T14:24:55;17.00;53.40
9668;DHT22;4872;48.316;10.650;2022-11-23T14:27:40;16.90;52.30
9668;DHT22;4872;48.316;10.650;2022-11-23T14:30:38;16.90;52.70
9668;DHT22;4872;48.316;10.650;2022-11-23T14:33:17;16.90;52.30
9668;DHT22;4872;48.316;10.650;2022-11-23T14:35:50;16.40;52.50
9668;DHT22;4872;48.316;10.650;2022-11-23T14:38:49;16.30;53.10
9668;DHT22;4872;48.316;10.650;2022-11-23T14:41:22;16.10;52.90
9668;DHT22;4872;48.316;10.650;2022-11-23T14:43:50;15.60;54.10
9668;DHT22;4872;48.316;10.650;2022-11-23T14:46:20;15.30;55.00
9668;DHT22;4872;48.316;10.650;2022-11-23T14:48:49;14.90;56.90
9668;DHT22;4872;48.316;10.650;2022-11-23T14:51:18;14.50;56.90
9668;DHT22;4872;48.316;10.650;2022-11-23T14:53:48;14.20;57.70
9668;DHT22;4872;48.316;10.650;2022-11-23T14:56:25;13.90;59.50
9668;DHT22;4872;48.316;10.650;2022-11-23T14:59:01;13.30;59.70
9668;DHT22;4872;48.316;10.650;2022-11-23T15:01:28;12.80;59.60
9668;DHT22;4872;48.316;10.650;2022-11-23T15:03:57;12.20;60.40
9668;DHT22;4872;48.316;10.650;2022-11-23T15:06:27;11.90;61.40
9668;DHT22;4872;48.316;10.650;2022-11-23T15:09:01;11.50;62.30
9668;DHT22;4872;48.316;10.650;2022-11-23T15:11:32;11.20;63.30
9668;DHT22;4872;48.316;10.650;2022-11-23T15:14:02;10.90;64.50
9668;DHT22;4872;48.316;10.650;2022-11-23T15:16:31;10.60;65.70
9668;DHT22;4872;48.316;10.650;2022-11-23T15:19:16;10.30;66.80
9668;DHT22;4872;48.316;10.650;2022-11-23T15:21:43;10.00;68.40
9668;DHT22;4872;48.316;10.650;2022-11-23T15:24:19;9.70;70.60
9668;DHT22;4872;48.316;10.650;2022-11-23T15:26:49;9.50;71.20
9668;DHT22;4872;48.316;10.650;2022-11-23T15:29:32;9.30;72.20
9668;DHT22;4872;48.316;10.650;2022-11-23T15:31:59;9.00;73.00
9668;DHT22;4872;48.316;10.650;2022-11-23T15:34:27;8.80;73.40
9668;DHT22;4872;48.316;10.650;2022-11-23T15:36:54;8.60;74.20
9668;DHT22;4872;48.316;10.650;2022-11-23T15:39:23;8.50;75.20
9668;DHT22;4872;48.316;10.650;2022-11-23T15:41:52;8.30;75.80
9668;DHT22;4872;48.316;10.650;2022-11-23T15:44:24;8.20;76.40
9668;DHT22;4872;48.316;10.650;2022-11-23T15:46:52;8.10;77.00
9668;DHT22;4872;48.316;10.650;2022-11-23T15:49:20;8.00;77.40
9668;DHT22;4872;48.316;10.650;2022-11-23T15:51:48;7.80;77.50
9668;DHT22;4872;48.316;10.650;2022-11-23T15:54:21;7.80;78.40
9668;DHT22;4872;48.316;10.650;2022-11-23T15:56:52;7.60;78.80
9668;DHT22;4872;48.316;10.650;2022-11-23T15:59:29;7.50;79.40
9668;DHT22;4872;48.316;10.650;2022-11-23T16:01:56;7.50;79.30
9668;DHT22;4872;48.316;10.650;2022-11-23T16:04:26;7.30;79.50
9668;DHT22;4872;48.316;10.650;2022-11-23T16:06:54;7.20;80.00
9668;DHT22;4872;48.316;10.650;2022-11-23T16:09:38;7.10;80.30
9668;DHT22;4872;48.316;10.650;2022-11-23T16:12:21;7.10;80.90
9668;DHT22;4872;48.316;10.650;2022-11-23T16:14:48;7.00;81.30
9668;DHT22;4872;48.316;10.650;2022-11-23T16:17:17;6.90;81.50
9668;DHT22;4872;48.316;10.650;2022-11-23T16:19:46;6.80;81.90
9668;DHT22;4872;48.316;10.650;2022-11-23T16:22:21;6.70;82.40
9668;DHT22;4872;48.316;10.650;2022-11-23T16:24:51;6.60;83.00
9668;DHT22;4872;48.316;10.650;2022-11-23T16:27:23;6.50;83.30
9668;DHT22;4872;48.316;10.650;2022-11-23T16:29:51;6.50;83.30
9668;DHT22;4872;48.316;10.650;2022-11-23T16:32:26;6.50;83.90
9668;DHT22;4872;48.316;10.650;2022-11-23T16:34:54;6.30;84.00
9668;DHT22;4872;48.316;10.650;2022-11-23T16:37:23;6.40;85.40
9668;DHT22;4872;48.316;10.650;2022-11-23T16:39:51;6.30;85.10
9668;DHT22;4872;48.316;10.650;2022-11-23T16:42:17;6.20;85.30
9668;DHT22;4872;48.316;10.650;2022-11-23T16:44:46;6.20;85.40
9668;DHT22;4872;48.316;10.650;2022-11-23T16:47:20;6.30;86.00
9668;DHT22;4872;48.316;10.650;2022-11-23T16:49:47;6.10;86.00
9668;DHT22;4872;48.316;10.650;2022-11-23T16:52:14;6.10;86.20
9668;DHT22;4872;48.316;10.650;2022-11-23T16:54:41;6.10;86.50
9668;DHT22;4872;48.316;10.650;2022-11-23T16:57:16;6.00;86.80
9668;DHT22;4872;48.316;10.650;2022-11-23T16:59:45;6.00;87.20
9668;DHT22;4872;48.316;10.650;2022-11-23T17:02:13;6.00;87.70
9668;DHT22;4872;48.316;10.650;2022-11-23T17:04:42;5.90;87.70
9668;DHT22;4872;48.316;10.650;2022-11-23T17:07:09;5.90;88.10
9668;DHT22;4872;48.316;10.650;2022-11-23T17:09:36;5.90;88.20
9668;DHT22;4872;48.316;10.650;2022-11-23T17:12:05;5.90;88.40
9668;DHT22;4872;48.316;10.650;2022-11-23T17:14:35;5.80;88.60
9668;DHT22;4872;48.316;10.650;2022-11-23T17:17:09;5.80;89.20
9668;DHT22;4872;48.316;10.650;2022-11-23T17:19:36;5.90;89.50
9668;DHT22;4872;48.316;10.650;2022-11-23T17:22:03;5.90;89.20
9668;DHT22;4872;48.316;10.650;2022-11-23T17:24:29;5.90;89.60
9668;DHT22;4872;48.316;10.650;2022-11-23T17:26:56;5.90;89.90
9668;DHT22;4872;48.316;10.650;2022-11-23T17:29:23;5.90;90.00
9668;DHT22;4872;48.316;10.650;2022-11-23T17:31:50;6.00;90.10
9668;DHT22;4872;48.316;10.650;2022-11-23T17:34:18;6.00;90.20
9668;DHT22;4872;48.316;10.650;2022-11-23T17:36:46;6.10;90.20
9668;DHT22;4872;48.316;10.650;2022-11-23T17:39:17;6.20;90.20
9668;DHT22;4872;48.316;10.650;2022-11-23T17:41:45;6.10;90.20
9668;DHT22;4872;48.316;10.650;2022-11-23T17:44:12;6.20;90.30
9668;DHT22;4872;48.316;10.650;2022-11-23T17:46:40;6.20;90.20
9668;DHT22;4872;48.316;10.650;2022-11-23T17:49:09;6.20;90.30
9668;DHT22;4872;48.316;10.650;2022-11-23T17:51:38;6.30;90.30
9668;DHT22;4872;48.316;10.650;2022-11-23T17:54:05;6.30;90.30
9668;DHT22;4872;48.316;10.650;2022-11-23T17:56:32;6.30;90.20
9668;DHT22;4872;48.316;10.650;2022-11-23T17:58:59;6.30;90.40
9668;DHT22;4872;48.316;10.650;2022-11-23T18:01:26;6.30;90.20
9668;DHT22;4872;48.316;10.650;2022-11-23T18:03:53;6.40;90.00
9668;DHT22;4872;48.316;10.650;2022-11-23T18:06:22;6.40;90.10
9668;DHT22;4872;48.316;10.650;2022-11-23T18:08:51;6.40;90.20
9668;DHT22;4872;48.316;10.650;2022-11-23T18:11:18;6.40;90.20
9668;DHT22;4872;48.316;10.650;2022-11-23T18:13:46;6.40;90.30
9668;DHT22;4872;48.316;10.650;2022-11-23T18:16:15;6.40;90.40
9668;DHT22;4872;48.316;10.650;2022-11-23T18:18:42;6.10;90.40
9668;DHT22;4872;48.316;10.650;2022-11-23T18:21:09;6.00;90.70
9668;DHT22;4872;48.316;10.650;2022-11-23T18:23:39;5.80;90.90
9668;DHT22;4872;48.316;10.650;2022-11-23T18:26:14;5.70;91.00
9668;DHT22;4872;48.316;10.650;2022-11-23T18:28:41;5.50;91.30
9668;DHT22;4872;48.316;10.650;2022-11-23T18:31:08;5.50;91.00
9668;DHT22;4872;48.316;10.650;2022-11-23T18:33:35;5.50;91.10
9668;DHT22;4872;48.316;10.650;2022-11-23T18:36:03;5.70;90.90
9668;DHT22;4872;48.316;10.650;2022-11-23T18:38:30;5.80;91.20
9668;DHT22;4872;48.316;10.650;2022-11-23T18:40:57;5.90;91.00
9668;DHT22;4872;48.316;10.650;2022-11-23T18:43:25;6.00;91.00
9668;DHT22;4872;48.316;10.650;2022-11-23T18:45:53;6.20;90.70
9668;DHT22;4872;48.316;10.650;2022-11-23T18:48:20;6.40;90.90
9668;DHT22;4872;48.316;10.650;2022-11-23T18:50:47;6.50;90.90
9668;DHT22;4872;48.316;10.650;2022-11-23T18:53:14;6.50;90.90
9668;DHT22;4872;48.316;10.650;2022-11-23T18:55:41;6.60;91.30
9668;DHT22;4872;48.316;10.650;2022-11-23T18:58:08;6.60;91.60
9668;DHT22;4872;48.316;10.650;2022-11-23T19:00:36;6.50;92.30
9668;DHT22;4872;48.316;10.650;2022-11-23T19:03:03;6.50;93.10
9668;DHT22;4872;48.316;10.650;2022-11-23T19:05:32;6.30;93.80
9668;DHT22;4872;48.316;10.650;2022-11-23T19:07:59;6.30;94.40
9668;DHT22;4872;48.316;10.650;2022-11-23T19:10:29;6.20;94.80
9668;DHT22;4872;48.316;10.650;2022-11-23T19:12:56;6.10;95.20
9668;DHT22;4872;48.316;10.650;2022-11-23T19:15:23;6.00;95.60
9668;DHT22;4872;48.316;10.650;2022-11-23T19:17:52;5.90;95.80
9668;DHT22;4872;48.316;10.650;2022-11-23T19:20:19;5.80;96.30
9668;DHT22;4872;48.316;10.650;2022-11-23T19:22:48;5.80;96.90
9668;DHT22;4872;48.316;10.650;2022-11-23T19:25:15;5.80;96.90
9668;DHT22;4872;48.316;10.650;2022-11-23T19:27:43;5.80;97.20
9668;DHT22;4872;48.316;10.650;2022-11-23T19:30:11;5.60;97.40
9668;DHT22;4872;48.316;10.650;2022-11-23T19:32:38;5.60;98.00
9668;DHT22;4872;48.316;10.650;2022-11-23T19:35:07;5.60;98.40
9668;DHT22;4872;48.316;10.650;2022-11-23T19:37:34;5.50;98.40
9668;DHT22;4872;48.316;10.650;2022-11-23T19:40:01;5.50;98.60
9668;DHT22;4872;48.316;10.650;2022-11-23T19:42:28;5.40;99.10
9668;DHT22;4872;48.316;10.650;2022-11-23T19:44:55;5.50;99.30
9668;DHT22;4872;48.316;10.650;2022-11-23T19:47:21;5.40;99.30
9668;DHT22;4872;48.316;10.650;2022-11-23T19:49:48;5.40;99.60
9668;DHT22;4872;48.316;10.650;2022-11-23T19:52:16;5.30;99.80
9668;DHT22;4872;48.316;10.650;2022-11-23T19:54:43;5.30;99.90
9668;DHT22;4872;48.316;10.650;2022-11-23T19:57:10;5.20;99.90
9668;DHT22;4872;48.316;10.650;2022-11-23T19:59:37;5.20;99.90
9668;DHT22;4872;48.316;10.650;2022-11-23T20:02:03;5.20;99.90
9668;DHT22;4872;48.316;10.650;2022-11-23T20:04:30;5.30;99.90
9668;DHT22;4872;48.316;10.650;2022-11-23T20:06:57;5.20;99.90
9668;DHT22;4872;48.316;10.650;2022-11-23T20:09:25;5.20;99.90
9668;DHT22;4872;48.316;10.650;2022-11-23T20:11:52;5.10;99.90
9668;DHT22;4872;48.316;10.650;2022-11-23T20:14:19;5.10;99.90
9668;DHT22;4872;48.316;10.650;2022-11-23T20:16:46;5.20;99.90
9668;DHT22;4872;48.316;10.650;2022-11-23T20:19:13;5.10;99.90
9668;DHT22;4872;48.316;10.650;2022-11-23T20:21:40;5.10;99.90
9668;DHT22;4872;48.316;10.650;2022-11-23T20:24:10;5.10;99.90
9668;DHT22;4872;48.316;10.650;2022-11-23T20:26:39;5.10;99.90
9668;DHT22;4872;48.316;10.650;2022-11-23T20:29:07;5.00;99.90
9668;DHT22;4872;48.316;10.650;2022-11-23T20:31:34;5.10;99.90
9668;DHT22;4872;48.316;10.650;2022-11-23T20:34:02;5.10;99.90
9668;DHT22;4872;48.316;10.650;2022-11-23T20:36:30;5.20;99.90
9668;DHT22;4872;48.316;10.650;2022-11-23T20:39:00;5.10;99.90
9668;DHT22;4872;48.316;10.650;2022-11-23T20:41:29;5.10;99.90
9668;DHT22;4872;48.316;10.650;2022-11-23T20:43:58;5.10;99.90
9668;DHT22;4872;48.316;10.650;2022-11-23T20:46:27;5.20;99.90
9668;DHT22;4872;48.316;10.650;2022-11-23T20:48:54;5.10;99.90
9668;DHT22;4872;48.316;10.650;2022-11-23T20:51:22;5.00;99.90
9668;DHT22;4872;48.316;10.650;2022-11-23T20:53:50;5.10;99.90
9668;DHT22;4872;48.316;10.650;2022-11-23T20:56:17;5.10;99.90
9668;DHT22;4872;48.316;10.650;2022-11-23T20:58:45;5.20;99.90
9668;DHT22;4872;48.316;10.650;2022-11-23T21:01:15;5.20;99.90
9668;DHT22;4872;48.316;10.650;2022-11-23T21:03:48;5.30;99.90
9668;DHT22;4872;48.316;10.650;2022-11-23T21:06:15;5.30;99.90
9668;DHT22;4872;48.316;10.650;2022-11-23T21:08:43;5.30;99.90
9668;DHT22;4872;48.316;10.650;2022-11-23T21:11:12;5.30;99.90
9668;DHT22;4872;48.316;10.650;2022-11-23T21:13:57;5.40;99.90
9668;DHT22;4872;48.316;10.650;2022-11-23T21:16:35;5.40;99.90
9668;DHT22;4872;48.316;10.650;2022-11-23T21:19:03;5.50;99.90
9668;DHT22;4872;48.316;10.650;2022-11-23T21:21:30;5.60;99.90